sensor_id;sensor_type;location;lat;lon;timestamp;P1;durP1;ratioP1;P2;durP2;ratioP2
75005;SDS011;63553;51.814;4.600;2023-03-25T00:02:13;3.97;;;1.58;;
75005;SDS011;63553;51.814;4.600;2023-03-25T00:04:39;3.60;;;1.60;;
75005;SDS011;63553;51.814;4.600;2023-03-25T00:07:05;3.28;;;1.23;;
75005;SDS011;63553;51.814;4.600;2023-03-25T00:09:31;4.93;;;1.77;;
75005;SDS011;63553;51.814;4.600;2023-03-25T00:11:56;3.58;;;1.48;;
75005;SDS011;63553;51.814;4.600;2023-03-25T00:14:22;5.53;;;1.52;;
75005;SDS011;63553;51.814;4.600;2023-03-25T00:16:49;4.47;;;1.48;;
75005;SDS011;63553;51.814;4.600;2023-03-25T00:19:17;4.32;;;1.65;;
75005;SDS011;63553;51.814;4.600;2023-03-25T00:21:45;5.80;;;1.40;;
75005;SDS011;63553;51.814;4.600;2023-03-25T00:24:16;3.90;;;1.55;;
75005;SDS011;63553;51.814;4.600;2023-03-25T00:26:45;4.80;;;1.63;;
75005;SDS011;63553;51.814;4.600;2023-03-25T00:29:12;4.55;;;1.77;;
75005;SDS011;63553;51.814;4.600;2023-03-25T00:31:38;5.07;;;1.63;;
75005;SDS011;63553;51.814;4.600;2023-03-25T00:34:04;4.82;;;1.38;;
75005;SDS011;63553;51.814;4.600;2023-03-25T00:36:30;4.70;;;1.40;;
75005;SDS011;63553;51.814;4.600;2023-03-25T00:38:55;4.07;;;1.43;;
75005;SDS011;63553;51.814;4.600;2023-03-25T00:41:22;4.95;;;1.50;;
75005;SDS011;63553;51.814;4.600;2023-03-25T00:43:52;3.05;;;1.55;;
75005;SDS011;63553;51.814;4.600;2023-03-25T00:48:48;2.97;;;1.30;;
75005;SDS011;63553;51.814;4.600;2023-03-25T00:51:14;3.85;;;1.70;;
75005;SDS011;63553;51.814;4.600;2023-03-25T00:53:43;4.68;;;1.50;;
75005;SDS011;63553;51.814;4.600;2023-03-25T00:56:09;2.45;;;1.50;;
75005;SDS011;63553;51.814;4.600;2023-03-25T00:58:36;5.00;;;1.48;;
75005;SDS011;63553;51.814;4.600;2023-03-25T01:01:06;3.08;;;1.27;;
75005;SDS011;63553;51.814;4.600;2023-03-25T01:03:37;3.92;;;1.52;;
75005;SDS011;63553;51.814;4.600;2023-03-25T01:06:03;5.47;;;1.23;;
75005;SDS011;63553;51.814;4.600;2023-03-25T01:08:40;2.08;;;1.35;;
75005;SDS011;63553;51.814;4.600;2023-03-25T01:11:15;3.97;;;1.50;;
75005;SDS011;63553;51.814;4.600;2023-03-25T01:13:43;4.28;;;1.33;;
75005;SDS011;63553;51.814;4.600;2023-03-25T01:16:08;3.90;;;1.10;;
75005;SDS011;63553;51.814;4.600;2023-03-25T01:18:34;3.88;;;1.25;;
75005;SDS011;63553;51.814;4.600;2023-03-25T01:21:02;3.85;;;1.50;;
75005;SDS011;63553;51.814;4.600;2023-03-25T01:23:31;2.85;;;1.40;;
75005;SDS011;63553;51.814;4.600;2023-03-25T01:25:57;1.92;;;1.20;;
75005;SDS011;63553;51.814;4.600;2023-03-25T01:28:22;6.95;;;1.73;;
75005;SDS011;63553;51.814;4.600;2023-03-25T01:30:48;3.05;;;1.13;;
75005;SDS011;63553;51.814;4.600;2023-03-25T01:33:13;2.88;;;1.15;;
75005;SDS011;63553;51.814;4.600;2023-03-25T01:35:38;5.00;;;1.70;;
75005;SDS011;63553;51.814;4.600;2023-03-25T01:38:04;2.80;;;1.38;;
75005;SDS011;63553;51.814;4.600;2023-03-25T01:40:30;3.67;;;1.27;;
75005;SDS011;63553;51.814;4.600;2023-03-25T01:42:55;3.40;;;1.60;;
75005;SDS011;63553;51.814;4.600;2023-03-25T01:45:22;2.42;;;1.13;;
75005;SDS011;63553;51.814;4.600;2023-03-25T01:47:49;4.45;;;1.45;;
75005;SDS011;63553;51.814;4.600;2023-03-25T01:50:19;4.57;;;1.48;;
75005;SDS011;63553;51.814;4.600;2023-03-25T01:52:46;4.10;;;1.23;;
75005;SDS011;63553;51.814;4.600;2023-03-25T01:55:15;4.30;;;1.25;;
75005;SDS011;63553;51.814;4.600;2023-03-25T01:57:42;5.75;;;1.50;;
75005;SDS011;63553;51.814;4.600;2023-03-25T02:00:10;3.53;;;1.23;;
75005;SDS011;63553;51.814;4.600;2023-03-25T02:02:37;3.45;;;1.20;;
75005;SDS011;63553;51.814;4.600;2023-03-25T02:05:05;3.60;;;1.48;;
75005;SDS011;63553;51.814;4.600;2023-03-25T02:07:37;3.30;;;1.17;;
75005;SDS011;63553;51.814;4.600;2023-03-25T02:10:07;2.45;;;1.40;;
75005;SDS011;63553;51.814;4.600;2023-03-25T02:12:34;3.22;;;1.30;;
75005;SDS011;63553;51.814;4.600;2023-03-25T02:15:00;4.30;;;1.15;;
75005;SDS011;63553;51.814;4.600;2023-03-25T02:17:38;3.88;;;1.20;;
75005;SDS011;63553;51.814;4.600;2023-03-25T02:34:26;1.42;;;1.13;;
75005;SDS011;63553;51.814;4.600;2023-03-25T02:39:56;4.90;;;1.45;;
75005;SDS011;63553;51.814;4.600;2023-03-25T02:42:51;4.78;;;1.73;;
75005;SDS011;63553;51.814;4.600;2023-03-25T02:45:29;2.60;;;1.17;;
75005;SDS011;63553;51.814;4.600;2023-03-25T02:48:04;2.15;;;1.00;;
75005;SDS011;63553;51.814;4.600;2023-03-25T02:50:40;3.15;;;1.40;;
75005;SDS011;63553;51.814;4.600;2023-03-25T02:53:12;3.17;;;1.42;;
75005;SDS011;63553;51.814;4.600;2023-03-25T02:55:41;5.18;;;1.40;;
75005;SDS011;63553;51.814;4.600;2023-03-25T02:58:09;3.78;;;1.48;;
75005;SDS011;63553;51.814;4.600;2023-03-25T03:00:37;2.10;;;1.27;;
75005;SDS011;63553;51.814;4.600;2023-03-25T03:03:04;3.67;;;1.42;;
75005;SDS011;63553;51.814;4.600;2023-03-25T03:05:32;2.72;;;1.30;;
75005;SDS011;63553;51.814;4.600;2023-03-25T03:08:02;3.80;;;1.60;;
75005;SDS011;63553;51.814;4.600;2023-03-25T03:10:33;4.68;;;1.63;;
75005;SDS011;63553;51.814;4.600;2023-03-25T03:19:29;3.30;;;1.23;;
75005;SDS011;63553;51.814;4.600;2023-03-25T03:22:07;2.47;;;1.25;;
75005;SDS011;63553;51.814;4.600;2023-03-25T03:27:19;5.00;;;1.70;;
75005;SDS011;63553;51.814;4.600;2023-03-25T03:30:00;1.73;;;1.17;;
75005;SDS011;63553;51.814;4.600;2023-03-25T03:32:30;3.33;;;1.15;;
75005;SDS011;63553;51.814;4.600;2023-03-25T03:35:02;3.58;;;1.10;;
75005;SDS011;63553;51.814;4.600;2023-03-25T03:37:33;3.20;;;1.33;;
75005;SDS011;63553;51.814;4.600;2023-03-25T03:40:05;3.42;;;1.10;;
75005;SDS011;63553;51.814;4.600;2023-03-25T03:42:39;4.53;;;1.30;;
75005;SDS011;63553;51.814;4.600;2023-03-25T03:45:21;3.83;;;1.60;;
75005;SDS011;63553;51.814;4.600;2023-03-25T03:47:53;3.38;;;1.15;;
75005;SDS011;63553;51.814;4.600;2023-03-25T03:50:25;5.05;;;1.20;;
75005;SDS011;63553;51.814;4.600;2023-03-25T03:55:40;3.33;;;1.30;;
75005;SDS011;63553;51.814;4.600;2023-03-25T03:58:18;4.43;;;1.65;;
75005;SDS011;63553;51.814;4.600;2023-03-25T04:03:22;4.78;;;1.30;;
75005;SDS011;63553;51.814;4.600;2023-03-25T04:05:56;3.67;;;1.58;;
75005;SDS011;63553;51.814;4.600;2023-03-25T04:11:23;3.33;;;1.17;;
75005;SDS011;63553;51.814;4.600;2023-03-25T04:13:54;4.30;;;1.60;;
75005;SDS011;63553;51.814;4.600;2023-03-25T04:16:23;3.05;;;1.35;;
75005;SDS011;63553;51.814;4.600;2023-03-25T04:18:49;2.70;;;1.38;;
75005;SDS011;63553;51.814;4.600;2023-03-25T04:21:17;4.38;;;1.55;;
75005;SDS011;63553;51.814;4.600;2023-03-25T04:23:44;4.85;;;1.50;;
75005;SDS011;63553;51.814;4.600;2023-03-25T04:26:10;9.65;;;1.75;;
75005;SDS011;63553;51.814;4.600;2023-03-25T04:28:37;4.78;;;1.50;;
75005;SDS011;63553;51.814;4.600;2023-03-25T04:31:09;4.22;;;1.42;;
75005;SDS011;63553;51.814;4.600;2023-03-25T04:33:39;6.53;;;2.13;;
75005;SDS011;63553;51.814;4.600;2023-03-25T04:36:05;7.18;;;1.30;;
75005;SDS011;63553;51.814;4.600;2023-03-25T04:38:31;4.60;;;1.50;;
75005;SDS011;63553;51.814;4.600;2023-03-25T04:40:56;6.50;;;1.50;;
75005;SDS011;63553;51.814;4.600;2023-03-25T04:43:22;5.75;;;1.30;;
75005;SDS011;63553;51.814;4.600;2023-03-25T04:45:48;2.83;;;1.42;;
75005;SDS011;63553;51.814;4.600;2023-03-25T04:48:19;4.65;;;1.50;;
75005;SDS011;63553;51.814;4.600;2023-03-25T04:50:50;8.00;;;1.63;;
75005;SDS011;63553;51.814;4.600;2023-03-25T04:53:16;4.30;;;1.45;;
75005;SDS011;63553;51.814;4.600;2023-03-25T04:55:42;6.70;;;1.38;;
75005;SDS011;63553;51.814;4.600;2023-03-25T04:58:11;4.60;;;1.40;;
75005;SDS011;63553;51.814;4.600;2023-03-25T05:00:37;5.53;;;1.30;;
75005;SDS011;63553;51.814;4.600;2023-03-25T05:03:05;2.47;;;1.20;;
75005;SDS011;63553;51.814;4.600;2023-03-25T05:05:30;5.25;;;1.63;;
75005;SDS011;63553;51.814;4.600;2023-03-25T05:07:55;5.07;;;1.57;;
75005;SDS011;63553;51.814;4.600;2023-03-25T05:10:23;5.65;;;1.60;;
75005;SDS011;63553;51.814;4.600;2023-03-25T05:12:56;5.68;;;1.38;;
75005;SDS011;63553;51.814;4.600;2023-03-25T05:15:22;4.45;;;1.38;;
75005;SDS011;63553;51.814;4.600;2023-03-25T05:17:48;4.38;;;1.20;;
75005;SDS011;63553;51.814;4.600;2023-03-25T05:20:13;4.73;;;1.43;;
75005;SDS011;63553;51.814;4.600;2023-03-25T05:22:38;3.40;;;1.23;;
75005;SDS011;63553;51.814;4.600;2023-03-25T05:25:06;3.50;;;1.50;;
75005;SDS011;63553;51.814;4.600;2023-03-25T05:27:33;7.85;;;1.40;;
75005;SDS011;63553;51.814;4.600;2023-03-25T05:29:59;3.78;;;1.33;;
75005;SDS011;63553;51.814;4.600;2023-03-25T05:32:25;3.25;;;1.30;;
75005;SDS011;63553;51.814;4.600;2023-03-25T05:34:53;3.78;;;1.50;;
75005;SDS011;63553;51.814;4.600;2023-03-25T05:37:20;4.68;;;1.30;;
75005;SDS011;63553;51.814;4.600;2023-03-25T05:39:46;9.30;;;1.67;;
75005;SDS011;63553;51.814;4.600;2023-03-25T05:42:11;4.70;;;1.40;;
75005;SDS011;63553;51.814;4.600;2023-03-25T05:44:37;5.50;;;1.20;;
75005;SDS011;63553;51.814;4.600;2023-03-25T05:47:02;5.68;;;1.45;;
75005;SDS011;63553;51.814;4.600;2023-03-25T05:49:28;3.55;;;1.40;;
75005;SDS011;63553;51.814;4.600;2023-03-25T05:51:53;7.53;;;1.90;;
75005;SDS011;63553;51.814;4.600;2023-03-25T05:54:19;3.42;;;1.40;;
75005;SDS011;63553;51.814;4.600;2023-03-25T05:56:45;2.55;;;1.20;;
75005;SDS011;63553;51.814;4.600;2023-03-25T05:59:10;4.20;;;1.50;;
75005;SDS011;63553;51.814;4.600;2023-03-25T06:01:38;3.53;;;1.20;;
75005;SDS011;63553;51.814;4.600;2023-03-25T06:04:05;4.45;;;1.63;;
75005;SDS011;63553;51.814;4.600;2023-03-25T06:06:33;4.72;;;1.55;;
75005;SDS011;63553;51.814;4.600;2023-03-25T06:08:59;3.83;;;1.15;;
75005;SDS011;63553;51.814;4.600;2023-03-25T06:11:26;3.17;;;1.40;;
75005;SDS011;63553;51.814;4.600;2023-03-25T06:13:51;2.88;;;1.00;;
75005;SDS011;63553;51.814;4.600;2023-03-25T06:16:17;4.47;;;1.50;;
75005;SDS011;63553;51.814;4.600;2023-03-25T06:18:45;3.53;;;1.25;;
75005;SDS011;63553;51.814;4.600;2023-03-25T06:21:15;6.25;;;1.42;;
75005;SDS011;63553;51.814;4.600;2023-03-25T06:23:42;3.58;;;1.17;;
75005;SDS011;63553;51.814;4.600;2023-03-25T06:26:07;7.47;;;1.57;;
75005;SDS011;63553;51.814;4.600;2023-03-25T06:28:33;4.35;;;1.45;;
75005;SDS011;63553;51.814;4.600;2023-03-25T06:30:58;3.33;;;1.38;;
75005;SDS011;63553;51.814;4.600;2023-03-25T06:33:23;2.80;;;1.30;;
75005;SDS011;63553;51.814;4.600;2023-03-25T06:35:49;5.18;;;1.85;;
75005;SDS011;63553;51.814;4.600;2023-03-25T06:38:18;4.95;;;1.10;;
75005;SDS011;63553;51.814;4.600;2023-03-25T06:40:45;4.13;;;1.20;;
75005;SDS011;63553;51.814;4.600;2023-03-25T06:43:11;4.97;;;1.20;;
75005;SDS011;63553;51.814;4.600;2023-03-25T06:45:37;5.72;;;1.23;;
75005;SDS011;63553;51.814;4.600;2023-03-25T06:48:02;3.70;;;1.40;;
75005;SDS011;63553;51.814;4.600;2023-03-25T06:50:29;5.60;;;1.35;;
75005;SDS011;63553;51.814;4.600;2023-03-25T06:52:55;2.25;;;1.13;;
75005;SDS011;63553;51.814;4.600;2023-03-25T06:55:21;3.05;;;1.42;;
75005;SDS011;63553;51.814;4.600;2023-03-25T06:57:46;5.28;;;1.30;;
75005;SDS011;63553;51.814;4.600;2023-03-25T07:00:12;3.35;;;1.40;;
75005;SDS011;63553;51.814;4.600;2023-03-25T07:02:38;3.75;;;1.30;;
75005;SDS011;63553;51.814;4.600;2023-03-25T07:05:04;4.35;;;1.60;;
75005;SDS011;63553;51.814;4.600;2023-03-25T07:07:29;6.00;;;1.33;;
75005;SDS011;63553;51.814;4.600;2023-03-25T07:09:55;4.65;;;1.30;;
75005;SDS011;63553;51.814;4.600;2023-03-25T07:12:21;3.65;;;1.35;;
75005;SDS011;63553;51.814;4.600;2023-03-25T07:14:51;3.72;;;1.30;;
75005;SDS011;63553;51.814;4.600;2023-03-25T07:17:17;4.65;;;1.60;;
75005;SDS011;63553;51.814;4.600;2023-03-25T07:19:43;2.45;;;1.20;;
75005;SDS011;63553;51.814;4.600;2023-03-25T07:22:09;4.75;;;1.40;;
75005;SDS011;63553;51.814;4.600;2023-03-25T07:24:34;5.20;;;1.33;;
75005;SDS011;63553;51.814;4.600;2023-03-25T07:27:00;2.53;;;1.10;;
75005;SDS011;63553;51.814;4.600;2023-03-25T07:29:25;2.72;;;1.50;;
75005;SDS011;63553;51.814;4.600;2023-03-25T07:31:51;4.90;;;1.50;;
75005;SDS011;63553;51.814;4.600;2023-03-25T07:34:16;6.68;;;1.45;;
75005;SDS011;63553;51.814;4.600;2023-03-25T07:36:41;4.68;;;1.50;;
75005;SDS011;63553;51.814;4.600;2023-03-25T07:39:07;6.10;;;1.60;;
75005;SDS011;63553;51.814;4.600;2023-03-25T07:41:32;4.03;;;1.77;;
75005;SDS011;63553;51.814;4.600;2023-03-25T07:43:58;4.95;;;1.30;;
75005;SDS011;63553;51.814;4.600;2023-03-25T07:46:23;5.30;;;1.33;;
75005;SDS011;63553;51.814;4.600;2023-03-25T07:48:48;9.02;;;2.15;;
75005;SDS011;63553;51.814;4.600;2023-03-25T07:51:14;6.63;;;1.70;;
75005;SDS011;63553;51.814;4.600;2023-03-25T07:53:39;3.22;;;1.30;;
75005;SDS011;63553;51.814;4.600;2023-03-25T07:56:08;5.03;;;1.42;;
75005;SDS011;63553;51.814;4.600;2023-03-25T07:58:34;7.43;;;2.13;;
75005;SDS011;63553;51.814;4.600;2023-03-25T08:01:00;6.07;;;2.17;;
75005;SDS011;63553;51.814;4.600;2023-03-25T08:03:25;7.22;;;1.88;;
75005;SDS011;63553;51.814;4.600;2023-03-25T08:05:52;6.35;;;1.50;;
75005;SDS011;63553;51.814;4.600;2023-03-25T08:08:18;6.13;;;1.50;;
75005;SDS011;63553;51.814;4.600;2023-03-25T08:10:43;8.52;;;2.20;;
75005;SDS011;63553;51.814;4.600;2023-03-25T08:13:11;8.13;;;1.83;;
75005;SDS011;63553;51.814;4.600;2023-03-25T08:15:37;8.63;;;2.90;;
75005;SDS011;63553;51.814;4.600;2023-03-25T08:18:03;8.88;;;1.70;;
75005;SDS011;63553;51.814;4.600;2023-03-25T08:20:30;4.97;;;1.65;;
75005;SDS011;63553;51.814;4.600;2023-03-25T08:22:56;9.10;;;2.30;;
75005;SDS011;63553;51.814;4.600;2023-03-25T08:25:22;6.25;;;1.95;;
75005;SDS011;63553;51.814;4.600;2023-03-25T08:27:48;6.25;;;1.90;;
75005;SDS011;63553;51.814;4.600;2023-03-25T08:30:13;4.88;;;1.70;;
75005;SDS011;63553;51.814;4.600;2023-03-25T08:32:39;8.27;;;1.95;;
75005;SDS011;63553;51.814;4.600;2023-03-25T08:35:05;5.60;;;1.55;;
75005;SDS011;63553;51.814;4.600;2023-03-25T08:37:32;4.05;;;1.52;;
75005;SDS011;63553;51.814;4.600;2023-03-25T08:40:02;7.32;;;1.73;;
75005;SDS011;63553;51.814;4.600;2023-03-25T08:42:33;4.63;;;1.67;;
75005;SDS011;63553;51.814;4.600;2023-03-25T08:44:59;11.07;;;2.17;;
75005;SDS011;63553;51.814;4.600;2023-03-25T08:47:25;10.23;;;1.77;;
75005;SDS011;63553;51.814;4.600;2023-03-25T08:49:50;13.97;;;1.97;;
75005;SDS011;63553;51.814;4.600;2023-03-25T08:52:16;7.85;;;2.00;;
75005;SDS011;63553;51.814;4.600;2023-03-25T08:54:41;10.90;;;1.80;;
75005;SDS011;63553;51.814;4.600;2023-03-25T08:57:06;8.85;;;2.25;;
75005;SDS011;63553;51.814;4.600;2023-03-25T08:59:32;8.27;;;2.17;;
75005;SDS011;63553;51.814;4.600;2023-03-25T09:01:58;9.80;;;2.35;;
75005;SDS011;63553;51.814;4.600;2023-03-25T09:04:23;7.50;;;1.75;;
75005;SDS011;63553;51.814;4.600;2023-03-25T09:06:49;9.10;;;2.28;;
75005;SDS011;63553;51.814;4.600;2023-03-25T09:09:15;8.98;;;2.58;;
75005;SDS011;63553;51.814;4.600;2023-03-25T09:11:42;6.15;;;1.90;;
75005;SDS011;63553;51.814;4.600;2023-03-25T09:14:08;9.85;;;2.33;;
75005;SDS011;63553;51.814;4.600;2023-03-25T09:16:34;13.25;;;2.75;;
75005;SDS011;63553;51.814;4.600;2023-03-25T09:19:00;10.88;;;3.00;;
75005;SDS011;63553;51.814;4.600;2023-03-25T09:21:26;8.50;;;2.25;;
75005;SDS011;63553;51.814;4.600;2023-03-25T09:23:51;7.72;;;2.47;;
75005;SDS011;63553;51.814;4.600;2023-03-25T09:26:16;8.73;;;2.33;;
75005;SDS011;63553;51.814;4.600;2023-03-25T09:28:42;8.20;;;1.90;;
75005;SDS011;63553;51.814;4.600;2023-03-25T09:31:08;9.48;;;2.30;;
75005;SDS011;63553;51.814;4.600;2023-03-25T09:33:34;5.95;;;2.10;;
75005;SDS011;63553;51.814;4.600;2023-03-25T09:36:00;6.15;;;1.98;;
75005;SDS011;63553;51.814;4.600;2023-03-25T09:38:26;7.85;;;1.95;;
75005;SDS011;63553;51.814;4.600;2023-03-25T09:40:52;8.20;;;2.55;;
75005;SDS011;63553;51.814;4.600;2023-03-25T09:43:23;4.95;;;2.03;;
75005;SDS011;63553;51.814;4.600;2023-03-25T09:45:58;9.15;;;1.98;;
75005;SDS011;63553;51.814;4.600;2023-03-25T09:48:30;7.63;;;2.08;;
75005;SDS011;63553;51.814;4.600;2023-03-25T09:50:57;13.75;;;2.20;;
75005;SDS011;63553;51.814;4.600;2023-03-25T09:55:54;16.80;;;5.85;;
75005;SDS011;63553;51.814;4.600;2023-03-25T10:00:48;18.10;;;5.20;;
75005;SDS011;63553;51.814;4.600;2023-03-25T10:03:23;16.08;;;4.60;;
75005;SDS011;63553;51.814;4.600;2023-03-25T10:19:54;13.50;;;3.60;;
75005;SDS011;63553;51.814;4.600;2023-03-25T10:25:44;6.03;;;3.17;;
75005;SDS011;63553;51.814;4.600;2023-03-25T10:28:18;9.40;;;3.30;;
75005;SDS011;63553;51.814;4.600;2023-03-25T10:30:48;8.60;;;3.58;;
75005;SDS011;63553;51.814;4.600;2023-03-25T10:33:35;8.77;;;3.78;;
75005;SDS011;63553;51.814;4.600;2023-03-25T10:36:02;7.60;;;3.40;;
75005;SDS011;63553;51.814;4.600;2023-03-25T10:38:30;8.95;;;3.67;;
75005;SDS011;63553;51.814;4.600;2023-03-25T10:48:35;7.20;;;3.30;;
75005;SDS011;63553;51.814;4.600;2023-03-25T10:53:38;14.57;;;3.88;;
75005;SDS011;63553;51.814;4.600;2023-03-25T10:56:10;5.20;;;3.15;;
75005;SDS011;63553;51.814;4.600;2023-03-25T10:58:39;10.07;;;3.50;;
75005;SDS011;63553;51.814;4.600;2023-03-25T11:01:11;8.73;;;3.40;;
75005;SDS011;63553;51.814;4.600;2023-03-25T11:03:39;7.38;;;3.30;;
75005;SDS011;63553;51.814;4.600;2023-03-25T11:06:11;7.28;;;3.22;;
75005;SDS011;63553;51.814;4.600;2023-03-25T11:11:37;7.32;;;3.90;;
75005;SDS011;63553;51.814;4.600;2023-03-25T11:14:03;7.28;;;4.25;;
75005;SDS011;63553;51.814;4.600;2023-03-25T11:16:30;8.77;;;4.15;;
75005;SDS011;63553;51.814;4.600;2023-03-25T11:19:01;9.30;;;3.88;;
75005;SDS011;63553;51.814;4.600;2023-03-25T11:21:33;9.50;;;3.80;;
75005;SDS011;63553;51.814;4.600;2023-03-25T11:24:00;9.55;;;4.55;;
75005;SDS011;63553;51.814;4.600;2023-03-25T11:26:27;8.30;;;3.88;;
75005;SDS011;63553;51.814;4.600;2023-03-25T11:29:02;8.85;;;4.05;;
75005;SDS011;63553;51.814;4.600;2023-03-25T11:31:35;9.35;;;4.40;;
75005;SDS011;63553;51.814;4.600;2023-03-25T11:36:37;8.15;;;4.18;;
75005;SDS011;63553;51.814;4.600;2023-03-25T11:39:15;8.30;;;4.28;;
75005;SDS011;63553;51.814;4.600;2023-03-25T11:41:42;13.18;;;5.32;;
75005;SDS011;63553;51.814;4.600;2023-03-25T11:44:14;8.55;;;4.30;;
75005;SDS011;63553;51.814;4.600;2023-03-25T11:46:46;8.15;;;3.75;;
75005;SDS011;63553;51.814;4.600;2023-03-25T11:49:15;9.00;;;3.72;;
75005;SDS011;63553;51.814;4.600;2023-03-25T11:51:46;12.23;;;4.00;;
75005;SDS011;63553;51.814;4.600;2023-03-25T11:54:14;10.52;;;4.55;;
75005;SDS011;63553;51.814;4.600;2023-03-25T11:56:44;9.18;;;4.15;;
75005;SDS011;63553;51.814;4.600;2023-03-25T11:59:56;10.40;;;3.75;;
75005;SDS011;63553;51.814;4.600;2023-03-25T12:02:28;9.60;;;3.30;;
75005;SDS011;63553;51.814;4.600;2023-03-25T12:05:03;11.77;;;3.47;;
75005;SDS011;63553;51.814;4.600;2023-03-25T12:07:40;8.10;;;2.78;;
75005;SDS011;63553;51.814;4.600;2023-03-25T12:10:06;7.53;;;3.08;;
75005;SDS011;63553;51.814;4.600;2023-03-25T12:23:16;7.60;;;3.17;;
75005;SDS011;63553;51.814;4.600;2023-03-25T12:31:41;9.75;;;3.08;;
75005;SDS011;63553;51.814;4.600;2023-03-25T12:43:21;6.20;;;2.70;;
75005;SDS011;63553;51.814;4.600;2023-03-25T12:46:11;7.60;;;2.80;;
75005;SDS011;63553;51.814;4.600;2023-03-25T12:51:27;5.45;;;2.20;;
75005;SDS011;63553;51.814;4.600;2023-03-25T13:02:00;9.43;;;2.40;;
75005;SDS011;63553;51.814;4.600;2023-03-25T13:07:20;7.70;;;2.55;;
75005;SDS011;63553;51.814;4.600;2023-03-25T13:09:52;5.05;;;2.30;;
75005;SDS011;63553;51.814;4.600;2023-03-25T13:12:35;9.88;;;2.63;;
75005;SDS011;63553;51.814;4.600;2023-03-25T13:15:21;7.05;;;2.42;;
75005;SDS011;63553;51.814;4.600;2023-03-25T13:23:26;7.20;;;2.95;;
75005;SDS011;63553;51.814;4.600;2023-03-25T13:26:13;5.35;;;2.20;;
75005;SDS011;63553;51.814;4.600;2023-03-25T13:28:47;6.63;;;2.40;;
75005;SDS011;63553;51.814;4.600;2023-03-25T13:31:37;5.18;;;2.00;;
75005;SDS011;63553;51.814;4.600;2023-03-25T13:45:00;3.67;;;2.08;;
75005;SDS011;63553;51.814;4.600;2023-03-25T13:47:29;6.53;;;2.05;;
75005;SDS011;63553;51.814;4.600;2023-03-25T13:50:02;4.07;;;1.90;;
75005;SDS011;63553;51.814;4.600;2023-03-25T13:52:36;6.00;;;2.13;;
75005;SDS011;63553;51.814;4.600;2023-03-25T13:55:09;7.13;;;1.95;;
75005;SDS011;63553;51.814;4.600;2023-03-25T14:00:33;6.60;;;2.35;;
75005;SDS011;63553;51.814;4.600;2023-03-25T14:03:26;3.85;;;2.15;;
75005;SDS011;63553;51.814;4.600;2023-03-25T14:05:54;4.20;;;1.77;;
75005;SDS011;63553;51.814;4.600;2023-03-25T14:11:51;5.38;;;2.22;;
75005;SDS011;63553;51.814;4.600;2023-03-25T14:14:32;4.85;;;1.67;;
75005;SDS011;63553;51.814;4.600;2023-03-25T14:17:01;4.75;;;1.95;;
75005;SDS011;63553;51.814;4.600;2023-03-25T14:22:19;4.35;;;1.88;;
75005;SDS011;63553;51.814;4.600;2023-03-25T14:24:47;8.02;;;2.03;;
75005;SDS011;63553;51.814;4.600;2023-03-25T14:27:17;4.68;;;1.92;;
75005;SDS011;63553;51.814;4.600;2023-03-25T14:29:58;6.28;;;2.15;;
75005;SDS011;63553;51.814;4.600;2023-03-25T14:32:33;6.07;;;2.00;;
75005;SDS011;63553;51.814;4.600;2023-03-25T14:45:59;4.10;;;1.83;;
75005;SDS011;63553;51.814;4.600;2023-03-25T14:48:29;5.55;;;1.80;;
75005;SDS011;63553;51.814;4.600;2023-03-25T14:53:49;6.25;;;2.22;;
75005;SDS011;63553;51.814;4.600;2023-03-25T14:56:35;6.97;;;2.28;;
75005;SDS011;63553;51.814;4.600;2023-03-25T14:59:08;6.25;;;2.00;;
75005;SDS011;63553;51.814;4.600;2023-03-25T15:01:38;7.95;;;2.00;;
75005;SDS011;63553;51.814;4.600;2023-03-25T15:04:10;3.97;;;1.88;;
75005;SDS011;63553;51.814;4.600;2023-03-25T15:06:39;6.55;;;2.20;;
75005;SDS011;63553;51.814;4.600;2023-03-25T15:09:06;4.40;;;1.90;;
75005;SDS011;63553;51.814;4.600;2023-03-25T15:11:36;7.47;;;1.95;;
75005;SDS011;63553;51.814;4.600;2023-03-25T15:14:08;5.13;;;1.77;;
75005;SDS011;63553;51.814;4.600;2023-03-25T15:19:12;7.18;;;2.05;;
75005;SDS011;63553;51.814;4.600;2023-03-25T15:24:26;7.28;;;2.15;;
75005;SDS011;63553;51.814;4.600;2023-03-25T15:26:57;13.38;;;2.58;;
75005;SDS011;63553;51.814;4.600;2023-03-25T15:32:20;7.63;;;2.08;;
75005;SDS011;63553;51.814;4.600;2023-03-25T15:38:37;6.03;;;1.80;;
75005;SDS011;63553;51.814;4.600;2023-03-25T15:55:16;7.38;;;1.92;;
75005;SDS011;63553;51.814;4.600;2023-03-25T15:57:47;7.70;;;2.30;;
75005;SDS011;63553;51.814;4.600;2023-03-25T16:00:56;5.00;;;2.35;;
75005;SDS011;63553;51.814;4.600;2023-03-25T16:03:42;8.52;;;2.30;;
75005;SDS011;63553;51.814;4.600;2023-03-25T16:06:02;6.57;;;2.20;;
75005;SDS011;63553;51.814;4.600;2023-03-25T16:08:32;7.72;;;2.30;;
75005;SDS011;63553;51.814;4.600;2023-03-25T16:11:14;7.80;;;2.33;;
75005;SDS011;63553;51.814;4.600;2023-03-25T16:14:04;6.57;;;1.92;;
75005;SDS011;63553;51.814;4.600;2023-03-25T16:16:38;6.28;;;2.13;;
75005;SDS011;63553;51.814;4.600;2023-03-25T16:19:09;6.10;;;2.60;;
75005;SDS011;63553;51.814;4.600;2023-03-25T16:21:40;6.18;;;2.28;;
75005;SDS011;63553;51.814;4.600;2023-03-25T16:24:05;9.82;;;2.58;;
75005;SDS011;63553;51.814;4.600;2023-03-25T16:29:07;5.22;;;2.05;;
75005;SDS011;63553;51.814;4.600;2023-03-25T16:31:37;6.57;;;2.28;;
75005;SDS011;63553;51.814;4.600;2023-03-25T16:34:13;7.70;;;2.50;;
75005;SDS011;63553;51.814;4.600;2023-03-25T16:36:40;5.05;;;1.95;;
75005;SDS011;63553;51.814;4.600;2023-03-25T16:39:10;8.15;;;2.45;;
75005;SDS011;63553;51.814;4.600;2023-03-25T16:44:06;5.05;;;1.70;;
75005;SDS011;63553;51.814;4.600;2023-03-25T16:46:32;8.18;;;2.35;;
75005;SDS011;63553;51.814;4.600;2023-03-25T16:48:57;8.90;;;2.38;;
75005;SDS011;63553;51.814;4.600;2023-03-25T16:51:27;8.23;;;2.45;;
75005;SDS011;63553;51.814;4.600;2023-03-25T16:53:59;6.82;;;2.35;;
75005;SDS011;63553;51.814;4.600;2023-03-25T16:56:29;16.08;;;7.30;;
75005;SDS011;63553;51.814;4.600;2023-03-25T17:01:26;16.92;;;8.48;;
75005;SDS011;63553;51.814;4.600;2023-03-25T17:03:54;9.38;;;5.55;;
75005;SDS011;63553;51.814;4.600;2023-03-25T17:06:32;12.48;;;4.65;;
75005;SDS011;63553;51.814;4.600;2023-03-25T17:09:03;12.65;;;3.92;;
75005;SDS011;63553;51.814;4.600;2023-03-25T17:11:34;12.15;;;3.25;;
75005;SDS011;63553;51.814;4.600;2023-03-25T17:14:01;9.32;;;3.30;;
75005;SDS011;63553;51.814;4.600;2023-03-25T17:16:31;9.43;;;3.05;;
75005;SDS011;63553;51.814;4.600;2023-03-25T17:18:58;11.23;;;3.33;;
75005;SDS011;63553;51.814;4.600;2023-03-25T17:21:27;9.75;;;3.05;;
75005;SDS011;63553;51.814;4.600;2023-03-25T17:23:55;60.58;;;22.10;;
75005;SDS011;63553;51.814;4.600;2023-03-25T17:26:55;24.23;;;8.25;;
75005;SDS011;63553;51.814;4.600;2023-03-25T17:29:28;28.80;;;9.05;;
75005;SDS011;63553;51.814;4.600;2023-03-25T17:31:54;26.20;;;8.05;;
75005;SDS011;63553;51.814;4.600;2023-03-25T17:34:21;25.65;;;7.82;;
75005;SDS011;63553;51.814;4.600;2023-03-25T17:36:48;20.50;;;6.95;;
75005;SDS011;63553;51.814;4.600;2023-03-25T17:39:22;17.67;;;5.95;;
75005;SDS011;63553;51.814;4.600;2023-03-25T17:46:59;13.73;;;5.10;;
75005;SDS011;63553;51.814;4.600;2023-03-25T17:49:25;14.17;;;4.60;;
75005;SDS011;63553;51.814;4.600;2023-03-25T17:51:50;15.60;;;4.90;;
75005;SDS011;63553;51.814;4.600;2023-03-25T17:54:15;11.27;;;4.15;;
75005;SDS011;63553;51.814;4.600;2023-03-25T17:56:41;10.90;;;3.83;;
75005;SDS011;63553;51.814;4.600;2023-03-25T17:59:11;11.55;;;3.25;;
75005;SDS011;63553;51.814;4.600;2023-03-25T18:01:40;11.65;;;3.30;;
75005;SDS011;63553;51.814;4.600;2023-03-25T18:04:06;8.73;;;3.38;;
75005;SDS011;63553;51.814;4.600;2023-03-25T18:06:33;7.68;;;3.40;;
75005;SDS011;63553;51.814;4.600;2023-03-25T18:08:58;7.93;;;3.17;;
75005;SDS011;63553;51.814;4.600;2023-03-25T18:11:23;9.97;;;3.17;;